createdAt,value
2018-07-12T00:00:37.650Z,99.90
2018-07-12T00:03:06.596Z,99.90
2018-07-12T00:05:35.515Z,99.90
2018-07-12T00:08:04.439Z,99.90
2018-07-12T00:10:33.388Z,99.90
2018-07-12T00:13:02.281Z,99.90
2018-07-12T00:15:31.111Z,99.90
2018-07-12T00:17:59.960Z,99.90
2018-07-12T00:20:28.840Z,99.90
2018-07-12T00:22:58.964Z,99.90
2018-07-12T00:25:27.897Z,99.90
2018-07-12T00:27:56.790Z,99.90
2018-07-12T00:30:25.837Z,99.90
2018-07-12T00:32:54.787Z,99.90
2018-07-12T00:35:23.908Z,99.90
2018-07-12T00:37:52.800Z,99.90
2018-07-12T00:40:21.732Z,99.90
2018-07-12T00:42:50.691Z,99.90
2018-07-12T00:45:19.571Z,99.90
2018-07-12T00:47:48.448Z,99.90
2018-07-12T00:50:17.371Z,99.90
2018-07-12T00:52:46.254Z,99.90
2018-07-12T00:55:15.164Z,99.90
2018-07-12T00:57:44.088Z,99.90
2018-07-12T01:00:12.950Z,99.90
2018-07-12T01:02:41.852Z,99.90
2018-07-12T01:05:10.823Z,99.90
2018-07-12T01:07:39.671Z,99.90
2018-07-12T01:10:08.569Z,99.90
2018-07-12T01:12:37.443Z,99.90
2018-07-12T01:15:06.322Z,99.90
2018-07-12T01:17:35.218Z,99.90
2018-07-12T01:20:04.096Z,99.90
2018-07-12T01:25:01.900Z,99.90
2018-07-12T01:27:30.854Z,99.90
2018-07-12T01:30:00.462Z,99.90
2018-07-12T01:32:29.307Z,99.90
2018-07-12T01:34:58.200Z,99.90
2018-07-12T01:37:27.050Z,99.90
2018-07-12T01:39:55.906Z,99.90
2018-07-12T01:42:24.856Z,99.90
2018-07-12T01:44:53.692Z,99.90
2018-07-12T01:47:22.573Z,99.90
2018-07-12T01:49:51.411Z,99.90
2018-07-12T01:52:20.333Z,99.90
2018-07-12T01:54:49.514Z,99.90
2018-07-12T01:57:18.423Z,99.90
2018-07-12T01:59:47.335Z,99.90
2018-07-12T02:02:16.239Z,99.90
2018-07-12T02:04:45.132Z,99.90
2018-07-12T02:07:14.052Z,99.90
2018-07-12T02:09:42.909Z,99.90
2018-07-12T02:12:11.831Z,99.90
2018-07-12T02:14:40.723Z,99.90
2018-07-12T02:17:09.583Z,99.90
2018-07-12T02:19:38.478Z,99.90
2018-07-12T02:22:07.428Z,99.90
2018-07-12T02:24:36.279Z,99.90
2018-07-12T02:27:05.184Z,99.90
2018-07-12T02:29:34.039Z,99.90
2018-07-12T02:32:02.806Z,99.90
2018-07-12T02:34:31.738Z,99.90
2018-07-12T02:37:00.579Z,99.90
2018-07-12T02:39:29.685Z,99.90
2018-07-12T02:41:58.561Z,99.90
2018-07-12T02:44:27.390Z,99.90
2018-07-12T02:46:56.270Z,99.90
2018-07-12T02:49:26.165Z,99.90
2018-07-12T02:51:55.098Z,99.90
2018-07-12T02:54:24.000Z,99.90
2018-07-12T02:56:53.006Z,99.90
2018-07-12T02:59:21.862Z,99.90
2018-07-12T03:01:50.721Z,99.90
2018-07-12T03:04:19.565Z,99.90
2018-07-12T03:06:48.458Z,99.90
2018-07-12T03:09:17.314Z,99.90
2018-07-12T03:11:46.203Z,99.90
2018-07-12T03:14:15.090Z,99.90
2018-07-12T03:16:43.973Z,99.90
2018-07-12T03:19:12.923Z,99.90
2018-07-12T03:21:42.817Z,99.90
2018-07-12T03:24:11.848Z,99.90
2018-07-12T03:26:43.339Z,99.90
2018-07-12T03:29:12.294Z,99.90
2018-07-12T03:31:41.173Z,99.90
2018-07-12T03:34:10.111Z,99.90
2018-07-12T03:36:38.999Z,99.90
2018-07-12T03:39:07.957Z,99.90
2018-07-12T03:41:36.829Z,99.90
2018-07-12T03:44:05.770Z,99.90
2018-07-12T03:46:34.764Z,99.90
2018-07-12T03:49:03.605Z,99.90
2018-07-12T03:51:32.562Z,99.90
2018-07-12T03:54:02.381Z,99.90
2018-07-12T03:56:32.305Z,99.90
2018-07-12T03:59:01.153Z,99.90
2018-07-12T04:01:30.151Z,99.90
2018-07-12T04:04:00.073Z,99.90
2018-07-12T04:06:28.947Z,99.90
2018-07-12T04:08:57.955Z,99.90
2018-07-12T04:11:26.859Z,99.90
2018-07-12T04:13:56.773Z,99.90
2018-07-12T04:16:25.638Z,99.90
2018-07-12T04:18:54.533Z,99.90
2018-07-12T04:21:23.463Z,99.90
2018-07-12T04:23:52.289Z,99.90
2018-07-12T04:26:21.248Z,99.90
2018-07-12T04:28:50.164Z,99.90
2018-07-12T04:31:20.084Z,99.90
2018-07-12T04:33:49.040Z,99.90
2018-07-12T04:36:19.004Z,99.90
2018-07-12T04:38:48.887Z,99.90
2018-07-12T04:41:17.777Z,99.90
2018-07-12T04:43:46.810Z,99.90
2018-07-12T04:46:16.821Z,99.90
2018-07-12T04:48:46.951Z,99.90
2018-07-12T04:51:15.907Z,99.90
2018-07-12T04:53:45.106Z,99.90
2018-07-12T04:56:14.017Z,99.90
2018-07-12T04:58:42.970Z,99.90
2018-07-12T05:01:11.884Z,99.90
2018-07-12T05:03:40.716Z,99.90
2018-07-12T05:06:09.562Z,99.90
2018-07-12T05:08:38.545Z,99.90
2018-07-12T05:11:07.224Z,99.90
2018-07-12T05:13:37.113Z,99.90
2018-07-12T05:16:20.902Z,99.90
2018-07-12T05:18:50.365Z,99.90
2018-07-12T05:21:19.470Z,99.90
2018-07-12T05:23:50.307Z,99.90
2018-07-12T05:26:19.239Z,99.90
2018-07-12T05:28:48.219Z,99.90
2018-07-12T05:31:17.265Z,99.90
2018-07-12T05:33:46.378Z,99.90
2018-07-12T05:36:53.172Z,99.90
2018-07-12T05:39:24.148Z,99.90
2018-07-12T05:41:54.731Z,99.90
2018-07-12T05:44:25.346Z,99.90
2018-07-12T05:46:56.087Z,99.90
2018-07-12T05:49:27.233Z,99.90
2018-07-12T05:51:58.422Z,99.90
2018-07-12T05:57:29.893Z,99.90
2018-07-12T06:00:00.867Z,99.90
2018-07-12T06:02:32.727Z,99.90
2018-07-12T06:05:13.390Z,99.90
2018-07-12T06:07:44.250Z,99.90
2018-07-12T06:10:15.060Z,99.90
2018-07-12T06:12:45.714Z,99.90
2018-07-12T06:15:16.542Z,99.90
2018-07-12T06:17:47.303Z,99.90
2018-07-12T06:20:19.319Z,99.90
2018-07-12T06:22:50.406Z,99.90
2018-07-12T06:25:21.428Z,99.90
2018-07-12T06:27:52.166Z,99.90
2018-07-12T06:30:22.839Z,99.90
2018-07-12T06:32:53.602Z,99.90
2018-07-12T06:35:40.335Z,99.90
2018-07-12T06:38:11.079Z,99.90
2018-07-12T06:40:41.813Z,99.90
2018-07-12T06:43:12.618Z,99.90
2018-07-12T06:45:44.357Z,99.90
2018-07-12T06:48:30.069Z,99.90
2018-07-12T06:51:00.985Z,99.90
2018-07-12T06:53:31.699Z,99.90
2018-07-12T06:56:02.420Z,99.90
2018-07-12T06:58:45.703Z,99.90
2018-07-12T07:01:16.460Z,99.90
2018-07-12T07:03:47.315Z,99.90
2018-07-12T07:06:18.127Z,99.90
2018-07-12T07:08:48.938Z,99.90
2018-07-12T07:11:19.721Z,99.90
2018-07-12T07:13:50.645Z,99.90
2018-07-12T07:16:21.565Z,99.60
2018-07-12T07:18:52.361Z,98.70
2018-07-12T07:21:23.145Z,98.00
2018-07-12T07:23:53.771Z,97.00
2018-07-12T07:26:24.531Z,96.90
2018-07-12T07:28:56.036Z,96.70
2018-07-12T07:31:26.787Z,96.10
2018-07-12T07:33:57.619Z,94.10
2018-07-12T07:36:28.379Z,92.80
2018-07-12T07:38:59.171Z,91.60
2018-07-12T07:41:29.948Z,89.20
2018-07-12T07:44:00.888Z,87.40
2018-07-12T07:46:31.717Z,87.30
2018-07-12T07:49:02.367Z,87.00
2018-07-12T07:51:33.188Z,87.60
2018-07-12T07:54:03.894Z,87.50
2018-07-12T07:56:34.879Z,87.60
2018-07-12T07:59:05.627Z,87.40
2018-07-12T08:01:36.352Z,83.50
2018-07-12T08:04:07.048Z,81.90
2018-07-12T08:06:37.775Z,82.00
2018-07-12T08:09:08.647Z,82.00
2018-07-12T08:11:45.172Z,81.70
2018-07-12T08:14:15.883Z,79.20
2018-07-12T08:16:46.645Z,78.50
2018-07-12T08:19:17.443Z,76.30
2018-07-12T08:21:48.874Z,73.70
2018-07-12T08:24:19.622Z,73.90
2018-07-12T08:26:50.293Z,74.60
2018-07-12T08:29:21.048Z,75.00
2018-07-12T08:31:51.764Z,74.10
2018-07-12T08:34:22.547Z,74.50
2018-07-12T08:36:53.349Z,71.90
2018-07-12T08:39:24.227Z,71.80
2018-07-12T08:41:55.052Z,70.80
2018-07-12T08:44:25.906Z,69.90
2018-07-12T08:46:56.720Z,67.90
2018-07-12T08:49:40.591Z,67.30
2018-07-12T08:52:11.217Z,66.20
2018-07-12T08:54:41.965Z,64.50
2018-07-12T08:57:12.679Z,63.10
2018-07-12T08:59:43.392Z,61.50
2018-07-12T09:02:14.076Z,62.60
2018-07-12T09:04:44.804Z,62.80
2018-07-12T09:07:16.343Z,64.60
2018-07-12T09:09:47.084Z,65.90
2018-07-12T09:12:17.893Z,65.80
2018-07-12T09:14:48.601Z,63.80
2018-07-12T09:17:19.411Z,63.20
2018-07-12T09:19:50.099Z,61.10
2018-07-12T09:22:20.895Z,59.50
2018-07-12T09:24:51.796Z,59.60
2018-07-12T09:27:22.585Z,56.60
2018-07-12T09:29:53.340Z,58.00
2018-07-12T09:32:23.987Z,57.60
2018-07-12T09:34:54.678Z,57.70
2018-07-12T09:37:25.421Z,58.50
2018-07-12T09:39:56.123Z,57.80
2018-07-12T09:42:26.878Z,58.30
2018-07-12T09:44:57.760Z,57.70
2018-07-12T09:47:28.531Z,57.70
2018-07-12T09:52:31.972Z,57.20
2018-07-12T09:55:03.329Z,57.40
2018-07-12T09:57:45.055Z,57.00
2018-07-12T10:00:15.917Z,56.70
2018-07-12T10:03:03.391Z,56.70
2018-07-12T10:05:41.366Z,56.50
2018-07-12T10:08:17.122Z,56.00
2018-07-12T10:11:05.515Z,54.70
2018-07-12T10:13:41.240Z,54.10
2018-07-12T10:16:16.959Z,53.70
2018-07-12T10:18:48.881Z,55.00
2018-07-12T10:21:19.731Z,54.60
2018-07-12T10:23:50.535Z,53.90
2018-07-12T10:26:21.736Z,53.80
2018-07-12T10:28:52.580Z,53.40
2018-07-12T10:31:23.375Z,53.30
2018-07-12T10:33:59.509Z,52.80
2018-07-12T10:36:30.248Z,53.60
2018-07-12T10:39:00.907Z,53.30
2018-07-12T10:41:31.716Z,53.20
2018-07-12T10:44:02.513Z,52.90
2018-07-12T10:46:33.281Z,52.20
2018-07-12T10:49:03.972Z,53.00
2018-07-12T10:51:34.766Z,53.10
2018-07-12T10:54:05.502Z,53.50
2018-07-12T10:56:36.232Z,54.50
2018-07-12T10:59:07.590Z,54.90
2018-07-12T11:01:38.495Z,54.40
2018-07-12T11:04:09.252Z,53.80
2018-07-12T11:06:40.093Z,52.50
2018-07-12T11:09:10.570Z,53.20
2018-07-12T11:11:42.447Z,53.50
2018-07-12T11:14:13.313Z,52.20
2018-07-12T11:16:44.064Z,53.00
2018-07-12T11:19:14.967Z,53.80
2018-07-12T11:21:46.036Z,54.70
2018-07-12T11:24:17.078Z,52.30
2018-07-12T11:26:47.966Z,52.00
2018-07-12T11:29:20.276Z,51.30
2018-07-12T11:31:51.096Z,50.80
2018-07-12T11:34:21.982Z,49.90
2018-07-12T11:36:52.672Z,49.60
2018-07-12T11:39:35.259Z,49.70
2018-07-12T11:42:09.903Z,49.80
2018-07-12T11:45:02.382Z,49.80
2018-07-12T11:47:40.912Z,50.20
2018-07-12T11:50:11.812Z,50.00
2018-07-12T11:52:55.364Z,50.20
2018-07-12T11:58:26.206Z,51.50
2018-07-12T12:00:57.935Z,51.50
2018-07-12T12:03:28.976Z,52.40
2018-07-12T12:05:59.942Z,52.80
2018-07-12T12:08:30.962Z,52.90
2018-07-12T12:11:01.995Z,52.50
2018-07-12T12:13:32.877Z,52.30
2018-07-12T12:16:03.656Z,52.50
2018-07-12T12:18:34.725Z,53.00
2018-07-12T12:21:05.586Z,52.60
2018-07-12T12:23:36.611Z,52.10
2018-07-12T12:26:07.376Z,51.40
2018-07-12T12:28:38.197Z,51.70
2018-07-12T12:31:08.843Z,52.10
2018-07-12T12:33:39.702Z,51.50
2018-07-12T12:36:10.621Z,49.60
2018-07-12T12:38:41.404Z,49.00
2018-07-12T12:41:12.268Z,47.00
2018-07-12T12:43:43.057Z,46.90
2018-07-12T12:46:14.570Z,47.80
2018-07-12T12:48:45.598Z,48.80
2018-07-12T12:51:16.545Z,49.30
2018-07-12T12:53:58.933Z,48.50
2018-07-12T12:56:29.756Z,48.00
2018-07-12T12:59:00.586Z,46.80
2018-07-12T13:01:31.475Z,47.30
2018-07-12T13:04:02.440Z,46.50
2018-07-12T13:06:33.259Z,46.50
2018-07-12T13:09:04.460Z,47.10
2018-07-12T13:11:35.209Z,47.90
2018-07-12T13:14:06.050Z,47.40
2018-07-12T13:16:36.897Z,47.90
2018-07-12T13:19:07.703Z,47.00
2018-07-12T13:21:50.423Z,47.20
2018-07-12T13:24:21.334Z,46.90
2018-07-12T13:26:52.272Z,47.50
2018-07-12T13:29:23.012Z,47.60
2018-07-12T13:31:53.913Z,46.80
2018-07-12T13:34:24.784Z,46.70
2018-07-12T13:36:55.603Z,46.70
2018-07-12T13:39:26.650Z,46.60
2018-07-12T13:41:57.529Z,46.40
2018-07-12T13:44:28.458Z,47.50
2018-07-12T13:46:59.252Z,46.90
2018-07-12T13:49:30.076Z,47.20
2018-07-12T13:52:01.602Z,47.40
2018-07-12T13:54:32.649Z,47.90
2018-07-12T13:57:03.504Z,47.40
2018-07-12T13:59:34.309Z,48.00
2018-07-12T14:02:10.158Z,47.70
2018-07-12T14:04:41.574Z,48.20
2018-07-12T14:07:12.871Z,47.80
2018-07-12T14:12:19.463Z,47.20
2018-07-12T14:14:50.419Z,47.20
2018-07-12T14:17:21.343Z,48.10
2018-07-12T14:20:02.197Z,48.10
2018-07-12T14:22:32.969Z,47.60
2018-07-12T14:25:03.798Z,46.80
2018-07-12T14:27:34.695Z,46.20
2018-07-12T14:30:06.200Z,45.70
2018-07-12T14:32:38.014Z,46.00
2018-07-12T14:35:10.383Z,46.00
2018-07-12T14:37:41.245Z,45.80
2018-07-12T14:40:12.072Z,44.70
2018-07-12T14:42:42.980Z,44.60
2018-07-12T14:45:13.776Z,44.60
2018-07-12T14:47:44.629Z,44.70
2018-07-12T14:50:29.876Z,45.00
2018-07-12T14:53:07.025Z,44.30
2018-07-12T14:55:39.349Z,43.10
2018-07-12T14:58:10.248Z,43.00
2018-07-12T15:00:57.269Z,43.20
2018-07-12T15:03:28.104Z,43.20
2018-07-12T15:06:01.235Z,43.00
2018-07-12T15:08:32.039Z,43.70
2018-07-12T15:11:02.881Z,43.70
2018-07-12T15:13:33.907Z,44.10
2018-07-12T15:16:09.753Z,44.10
2018-07-12T15:18:58.929Z,43.60
2018-07-12T15:21:40.216Z,43.80
2018-07-12T15:24:11.129Z,44.00
2018-07-12T15:26:52.492Z,43.70
2018-07-12T15:29:23.375Z,44.20
2018-07-12T15:31:54.291Z,45.00
2018-07-12T15:34:25.019Z,45.50
2018-07-12T15:36:55.748Z,46.20
2018-07-12T15:39:27.050Z,46.90
2018-07-12T15:42:21.000Z,47.60
2018-07-12T15:45:05.860Z,48.00
2018-07-12T15:47:36.722Z,48.10
2018-07-12T15:50:29.991Z,48.10
2018-07-12T15:56:00.142Z,49.00
2018-07-12T15:58:31.076Z,48.30
2018-07-12T16:01:02.501Z,49.10
2018-07-12T16:06:04.425Z,49.30
2018-07-12T16:08:59.524Z,48.80
2018-07-12T16:11:41.864Z,49.20
2018-07-12T16:14:24.756Z,48.60
2018-07-12T16:16:59.459Z,48.80
2018-07-12T16:19:30.259Z,47.60
2018-07-12T16:22:00.960Z,47.80
2018-07-12T16:24:31.685Z,48.40
2018-07-12T16:27:02.527Z,48.40
2018-07-12T16:29:33.221Z,48.60
2018-07-12T16:32:03.996Z,48.70
2018-07-12T16:34:34.934Z,48.50
2018-07-12T16:37:05.818Z,47.40
2018-07-12T16:39:36.535Z,47.70
2018-07-12T16:42:07.240Z,47.40
2018-07-12T16:44:37.899Z,47.50
2018-07-12T16:47:09.030Z,47.80
2018-07-12T16:49:39.779Z,47.30
2018-07-12T16:52:10.419Z,46.60
2018-07-12T16:54:41.154Z,44.50
2018-07-12T16:57:11.900Z,41.40
2018-07-12T16:59:42.554Z,39.80
2018-07-12T17:02:13.340Z,37.50
2018-07-12T17:04:44.198Z,35.10
2018-07-12T17:07:14.949Z,34.90
2018-07-12T17:09:45.697Z,34.80
2018-07-12T17:12:16.454Z,34.90
2018-07-12T17:14:47.224Z,33.40
2018-07-12T17:17:18.114Z,32.20
2018-07-12T17:19:54.455Z,32.10
2018-07-12T17:22:25.264Z,31.40
2018-07-12T17:24:56.153Z,30.10
2018-07-12T17:27:26.929Z,31.60
2018-07-12T17:29:57.679Z,31.80
2018-07-12T17:32:28.416Z,30.80
2018-07-12T17:34:59.119Z,29.30
2018-07-12T17:37:29.757Z,27.40
2018-07-12T17:40:00.440Z,26.80
2018-07-12T17:42:31.171Z,26.90
2018-07-12T17:45:01.987Z,26.70
2018-07-12T17:47:32.853Z,27.00
2018-07-12T17:50:03.502Z,27.00
2018-07-12T17:52:34.220Z,26.00
2018-07-12T17:55:04.976Z,25.40
2018-07-12T17:57:35.926Z,24.90
2018-07-12T18:00:07.058Z,25.10
2018-07-12T18:02:37.943Z,25.50
2018-07-12T18:05:08.685Z,26.00
2018-07-12T18:07:39.932Z,27.50
2018-07-12T18:10:10.886Z,28.40
2018-07-12T18:12:41.616Z,29.00
2018-07-12T18:15:12.405Z,29.90
2018-07-12T18:17:43.158Z,30.80
2018-07-12T18:20:13.813Z,31.30
2018-07-12T18:22:44.440Z,31.30
2018-07-12T18:25:15.193Z,31.10
2018-07-12T18:27:45.888Z,31.70
2018-07-12T18:30:16.676Z,32.20
2018-07-12T18:32:47.311Z,32.70
2018-07-12T18:35:18.201Z,33.20
2018-07-12T18:37:48.877Z,34.50
2018-07-12T18:40:19.511Z,35.60
2018-07-12T18:42:50.278Z,36.80
2018-07-12T18:45:20.991Z,38.30
2018-07-12T18:47:51.693Z,39.50
2018-07-12T18:50:22.505Z,41.60
2018-07-12T18:52:53.317Z,44.30
2018-07-12T18:55:24.000Z,46.30
2018-07-12T18:58:11.907Z,47.70
2018-07-12T19:00:42.712Z,48.90
2018-07-12T19:03:14.344Z,50.20
2018-07-12T19:05:45.174Z,51.00
2018-07-12T19:08:15.919Z,51.80
2018-07-12T19:10:46.657Z,52.50
2018-07-12T19:13:17.375Z,53.10
2018-07-12T19:15:48.091Z,53.60
2018-07-12T19:18:20.717Z,54.20
2018-07-12T19:20:51.385Z,54.70
2018-07-12T19:25:52.078Z,55.80
2018-07-12T19:28:23.138Z,56.00
2018-07-12T19:30:53.912Z,56.10
2018-07-12T19:33:24.740Z,56.50
2018-07-12T19:35:55.393Z,56.90
2018-07-12T19:40:56.296Z,57.00
2018-07-12T19:43:27.007Z,57.10
2018-07-12T19:45:57.907Z,57.30
2018-07-12T19:48:28.689Z,57.60
2018-07-12T19:50:59.408Z,57.50
2018-07-12T19:53:30.462Z,57.70
2018-07-12T19:56:01.154Z,57.80
2018-07-12T19:58:31.932Z,57.70
2018-07-12T20:01:02.636Z,57.90
2018-07-12T20:03:33.419Z,57.90
2018-07-12T20:06:04.129Z,58.40
2018-07-12T20:08:34.885Z,58.30
2018-07-12T20:11:05.680Z,58.50
2018-07-12T20:13:36.425Z,58.80
2018-07-12T20:16:08.094Z,59.10
2018-07-12T20:18:38.925Z,59.00
2018-07-12T20:24:11.550Z,59.40
2018-07-12T20:26:52.504Z,59.10
2018-07-12T20:29:33.048Z,59.80
2018-07-12T20:32:19.267Z,59.80
2018-07-12T20:34:50.127Z,60.30
2018-07-12T20:37:38.849Z,61.00
2018-07-12T20:40:09.589Z,61.60
2018-07-12T20:42:40.350Z,62.20
2018-07-12T20:45:11.076Z,62.60
2018-07-12T20:47:41.938Z,63.20
2018-07-12T20:50:12.608Z,63.70
2018-07-12T20:52:43.437Z,64.40
2018-07-12T20:55:14.220Z,65.50
2018-07-12T20:57:44.950Z,66.10
2018-07-12T21:00:22.012Z,66.80
2018-07-12T21:02:52.841Z,67.70
2018-07-12T21:05:23.656Z,68.70
2018-07-12T21:07:54.372Z,69.90
2018-07-12T21:10:25.073Z,70.80
2018-07-12T21:12:55.915Z,72.10
2018-07-12T21:15:26.844Z,73.30
2018-07-12T21:17:57.570Z,74.60
2018-07-12T21:20:28.325Z,76.00
2018-07-12T21:22:59.085Z,78.10
2018-07-12T21:25:29.978Z,78.90
2018-07-12T21:28:00.824Z,80.60
2018-07-12T21:30:31.659Z,81.90
2018-07-12T21:33:02.318Z,83.50
2018-07-12T21:35:33.124Z,85.80
2018-07-12T21:38:04.044Z,86.70
2018-07-12T21:40:34.795Z,87.80
2018-07-12T21:43:05.566Z,89.30
2018-07-12T21:45:36.291Z,90.40
2018-07-12T21:48:07.045Z,90.70
2018-07-12T21:50:37.841Z,91.50
2018-07-12T21:53:08.475Z,92.10
2018-07-12T21:55:39.173Z,92.80
2018-07-12T21:58:09.914Z,92.90
2018-07-12T22:00:40.709Z,93.70
2018-07-12T22:03:13.432Z,94.10
2018-07-12T22:05:44.111Z,94.20
2018-07-12T22:08:20.775Z,94.70
2018-07-12T22:10:53.655Z,95.20
2018-07-12T22:13:25.117Z,95.70
2018-07-12T22:15:55.819Z,96.70
2018-07-12T22:18:26.530Z,97.30
2018-07-12T22:20:57.308Z,97.70
2018-07-12T22:23:28.090Z,98.00
2018-07-12T22:25:58.712Z,98.50
2018-07-12T22:28:29.502Z,98.70
2018-07-12T22:31:00.496Z,99.00
2018-07-12T22:33:31.350Z,99.50
2018-07-12T22:36:02.073Z,99.80
2018-07-12T22:38:32.813Z,99.90
2018-07-12T22:41:03.533Z,99.90
2018-07-12T22:43:34.349Z,99.90
2018-07-12T22:46:05.217Z,99.90
2018-07-12T22:51:05.957Z,99.90
2018-07-12T22:53:36.698Z,99.90
2018-07-12T22:56:07.436Z,99.90
2018-07-12T22:58:38.180Z,99.90
2018-07-12T23:01:08.854Z,99.90
2018-07-12T23:03:39.682Z,99.90
2018-07-12T23:06:10.473Z,99.90
2018-07-12T23:08:41.338Z,99.90
2018-07-12T23:11:12.364Z,99.90
2018-07-12T23:13:43.297Z,99.90
2018-07-12T23:16:14.042Z,99.90
2018-07-12T23:18:44.766Z,99.90
2018-07-12T23:21:15.515Z,99.90
2018-07-12T23:23:46.232Z,99.90
2018-07-12T23:26:17.060Z,99.90
2018-07-12T23:28:47.817Z,99.90
2018-07-12T23:31:18.634Z,99.90
2018-07-12T23:33:49.355Z,99.90
2018-07-12T23:36:20.113Z,99.90
2018-07-12T23:38:50.927Z,99.90
2018-07-12T23:41:21.818Z,99.90
2018-07-12T23:43:52.664Z,99.90
2018-07-12T23:46:23.397Z,99.90
2018-07-12T23:48:54.223Z,99.90
2018-07-12T23:51:25.261Z,99.90
2018-07-12T23:53:55.935Z,99.90
2018-07-12T23:56:26.590Z,99.90
2018-07-12T23:58:57.228Z,99.90
